Time;durP1;ratioP1;P1;durP2;ratioP2;P2;SDS_P1;SDS_P2;PMS_P1;PMS_P2;Temp;Humidity;BMP_temperature;BMP_pressure;BME280_temperature;BME280_humidity;BME280_pressure;Samples;Min_cycle;Max_cycle;Signal;HPM_P1;HPM_P2
2020/12/15 00:00:29;;;;;;;5.47;2.93;;;;;;;0.32;89.42;100354.63;1751446;81;21028;-66
2020/12/15 00:02:57;;;;;;;4.90;3.23;;;;;;;0.29;89.40;100353.97;1751536;82;21020;-66
2020/12/15 00:05:25;;;;;;;8.03;3.47;;;;;;;0.27;89.39;100342.09;1751359;82;21029;-65
2020/12/15 00:07:53;;;;;;;5.77;3.43;;;;;;;0.26;89.40;100339.05;1751464;82;21290;-65
2020/12/15 00:10:22;;;;;;;7.27;3.50;;;;;;;0.26;89.42;100341.70;1751428;81;20972;-66
2020/12/15 00:12:50;;;;;;;7.33;3.50;;;;;;;0.25;89.40;100340.47;1751390;80;21036;-65
2020/12/15 00:15:18;;;;;;;9.40;4.17;;;;;;;0.26;89.45;100339.53;1751447;82;21042;-65
2020/12/15 00:17:46;;;;;;;8.80;3.77;;;;;;;0.23;89.46;100337.06;1760057;80;21038;-65
2020/12/15 00:20:14;;;;;;;6.17;4.23;;;;;;;0.19;89.46;100332.41;1731947;81;21343;-66
2020/12/15 00:22:41;;;;;;;8.57;4.20;;;;;;;0.16;89.46;100328.61;1757735;80;21036;-65
2020/12/15 00:25:10;;;;;;;16.47;7.23;;;;;;;0.13;89.46;100334.98;1738436;82;21038;-65
2020/12/15 00:27:38;;;;;;;11.83;6.03;;;;;;;0.10;89.47;100333.84;1738399;82;21009;-64
2020/12/15 00:30:06;;;;;;;9.37;4.50;;;;;;;0.06;89.49;100326.18;1738463;82;21057;-64
2020/12/15 00:32:34;;;;;;;7.20;3.53;;;;;;;0.05;89.50;100328.45;1738349;82;21152;-65
2020/12/15 00:35:02;;;;;;;3.80;2.43;;;;;;;0.02;89.53;100325.52;1738349;82;21061;-65
2020/12/15 00:37:35;;;;;;;5.17;3.17;;;;;;;0.00;89.53;100322.11;1738492;82;21009;-65
2020/12/15 00:40:04;;;;;;;;;;;;;;;0.00;89.54;100326.09;1741007;82;21563;-66
2020/12/15 00:42:32;;;;;;;10.97;3.97;;;;;;;0.01;89.54;100322.95;1738429;82;20226;-65
2020/12/15 00:44:59;;;;;;;14.20;7.60;;;;;;;0.00;89.56;100311.47;1738375;82;21292;-66
2020/12/15 00:47:27;;;;;;;9.23;4.97;;;;;;;-0.02;89.60;100304.05;1738377;82;21017;-67
2020/12/15 00:49:55;;;;;;;6.63;3.67;;;;;;;-0.03;89.67;100312.98;1738367;82;21083;-66
2020/12/15 00:52:27;;;;;;;6.67;3.83;;;;;;;-0.03;89.69;100313.83;1738359;82;21999;-64
2020/12/15 00:54:55;;;;;;;8.40;4.70;;;;;;;-0.03;89.74;100322.30;1738482;82;21029;-65
2020/12/15 00:57:23;;;;;;;6.17;3.30;;;;;;;-0.02;89.77;100319.54;1738328;82;21205;-65
2020/12/15 00:59:53;;;;;;;10.13;4.07;;;;;;;-0.02;89.82;100320.88;1738362;82;21010;-65
2020/12/15 01:02:21;;;;;;;5.23;3.57;;;;;;;-0.01;89.84;100323.05;1738393;82;20943;-65
2020/12/15 01:04:49;;;;;;;5.00;3.87;;;;;;;-0.02;89.86;100318.22;1738400;82;20954;-65
2020/12/15 01:07:19;;;;;;;6.93;3.73;;;;;;;-0.04;89.87;100318.76;1738439;82;21038;-65
2020/12/15 01:09:47;;;;;;;3.37;2.70;;;;;;;-0.04;89.90;100324.56;1738507;82;21278;-65
2020/12/15 01:12:15;;;;;;;8.97;4.00;;;;;;;-0.05;89.91;100327.70;1738426;82;21058;-65
2020/12/15 01:14:43;;;;;;;11.33;5.20;;;;;;;-0.03;89.95;100319.63;1738626;82;20942;-64
2020/12/15 01:17:12;;;;;;;14.93;5.67;;;;;;;0.01;89.98;100321.63;1740307;81;20927;-64
2020/12/15 01:19:41;;;;;;;9.20;5.00;;;;;;;0.00;89.99;100322.11;1760203;80;21058;-65
2020/12/15 01:22:11;;;;;;;6.00;3.87;;;;;;;-0.03;89.98;100316.98;1793113;80;21470;-64
2020/12/15 01:24:40;;;;;;;6.23;3.90;;;;;;;-0.04;90.00;100313.92;1779843;80;21572;-66
2020/12/15 01:27:18;;;;;;;11.77;4.37;;;;;;;-0.02;90.01;100317.34;1845313;76;26640;-65
2020/12/15 01:29:48;;;;;;;5.67;3.03;;;;;;;-0.06;89.98;100315.83;1810499;79;21051;-65
2020/12/15 01:32:17;;;;;;;7.20;3.93;;;;;;;-0.09;89.97;100316.02;1783614;79;21370;-65
2020/12/15 01:34:45;;;;;;;9.03;4.27;;;;;;;-0.10;90.00;100316.50;1815217;78;20972;-65
2020/12/15 01:37:13;;;;;;;13.07;6.20;;;;;;;-0.14;89.98;100314.99;1815160;79;20976;-66
2020/12/15 01:39:41;;;;;;;30.87;14.23;;;;;;;-0.17;90.00;100309.86;1815243;77;21043;-65
2020/12/15 01:42:11;;;;;;;19.27;8.53;;;;;;;-0.18;89.99;100309.47;1767559;81;21668;-65
2020/12/15 01:44:51;;;;;;;15.17;7.03;;;;;;;-0.14;90.03;100312.78;1845271;76;27201;-66
2020/12/15 01:47:19;;;;;;;5.57;3.40;;;;;;;-0.20;90.03;100307.38;1815308;79;20937;-64
2020/12/15 01:49:47;;;;;;;15.90;6.27;;;;;;;-0.23;90.07;100301.80;1815194;77;21193;-65
2020/12/15 01:52:16;;;;;;;16.07;6.17;;;;;;;-0.25;90.10;100310.34;1815148;79;21059;-64
2020/12/15 01:54:45;;;;;;;25.40;12.57;;;;;;;-0.27;90.12;100310.89;1810644;79;21545;-65
2020/12/15 01:57:15;;;;;;;19.13;8.23;;;;;;;-0.28;90.15;100315.00;1815389;79;21577;-66
2020/12/15 01:59:47;;;;;;;9.45;4.92;;;;;;;-0.29;90.17;100313.28;1699148;84;21510;-65
2020/12/15 02:02:25;;;;;;;31.50;13.50;;;;;;;-0.24;90.24;100309.38;1889948;76;26617;-65
2020/12/15 02:04:55;;;;;;;28.70;13.10;;;;;;;-0.29;90.23;100314.13;1855935;77;21531;-64
2020/12/15 02:07:23;;;;;;;25.83;10.03;;;;;;;-0.30;90.29;100316.88;1860748;77;21540;-64
2020/12/15 02:09:52;;;;;;;18.33;8.60;;;;;;;-0.32;90.32;100315.66;1827966;77;20961;-65
2020/12/15 02:12:28;;;;;;;33.67;16.10;;;;;;;-0.32;90.35;100316.12;1855968;77;20986;-65
2020/12/15 02:14:57;;;;;;;23.53;12.13;;;;;;;-0.32;90.35;100320.98;1827708;77;21026;-65
2020/12/15 02:17:29;;;;;;;20.33;10.37;;;;;;;-0.30;90.38;100324.84;1855879;77;20942;-65
2020/12/15 02:20:08;;;;;;;13.23;6.60;;;;;;;-0.25;90.39;100329.41;1843718;76;26796;-65
2020/12/15 02:22:37;;;;;;;11.57;5.20;;;;;;;-0.29;90.41;100329.22;1742824;82;21538;-65
2020/12/15 02:25:07;;;;;;;5.50;3.53;;;;;;;-0.28;90.43;100344.23;1771093;81;21248;-64
2020/12/15 02:27:36;;;;;;;4.47;3.43;;;;;;;-0.28;90.43;100341.09;1771305;81;21004;-65
2020/12/15 02:30:06;;;;;;;2.80;2.60;;;;;;;-0.28;90.45;100348.22;1771270;81;21009;-66
2020/12/15 02:32:37;;;;;;;3.85;2.95;;;;;;;-0.28;90.41;100353.05;1771365;81;20988;-65
2020/12/15 02:35:07;;;;;;;6.53;3.30;;;;;;;-0.29;90.42;100355.31;1771307;81;21052;-64
2020/12/15 02:37:35;;;;;;;24.83;6.97;;;;;;;-0.31;90.41;100350.57;1740984;81;21438;-66
2020/12/15 02:40:05;;;;;;;22.63;9.40;;;;;;;-0.31;90.41;100350.57;1771338;79;20913;-65
2020/12/15 02:42:41;;;;;;;25.53;11.77;;;;;;;-0.31;90.42;100350.57;1649431;86;21001;-65
2020/12/15 02:45:17;;;;;;;75.77;27.10;;;;;;;-0.26;90.44;100347.64;1835912;76;27914;-65
2020/12/15 02:47:45;;;;;;;37.87;13.27;;;;;;;-0.29;90.44;100340.70;1814753;79;20941;-64
2020/12/15 02:50:24;;;;;;;29.73;11.20;;;;;;;-0.26;90.39;100348.97;1889775;76;21360;-65
2020/12/15 02:52:55;;;;;;;15.20;6.07;;;;;;;-0.29;90.34;100348.67;1884788;76;20964;-65
2020/12/15 02:55:24;;;;;;;12.80;5.07;;;;;;;-0.30;90.36;100354.08;1855752;76;20969;-65
2020/12/15 02:57:52;;;;;;;6.83;4.37;;;;;;;-0.33;90.35;100357.78;1899981;75;20946;-65
2020/12/15 03:00:20;;;;;;;18.20;7.93;;;;;;;-0.34;90.35;100356.55;1904928;75;21023;-66
2020/12/15 03:02:49;;;;;;;14.93;7.87;;;;;;;-0.33;90.37;100362.26;1904857;75;21042;-64
2020/12/15 03:05:22;;;;;;;31.87;14.80;;;;;;;-0.33;90.38;100361.77;1903875;75;21581;-64
2020/12/15 03:07:52;;;;;;;;;;;;;;;-0.33;90.36;100361.77;1907720;75;20945;-65
2020/12/15 03:10:20;;;;;;;7.83;4.73;;;;;;;-0.34;90.39;100364.52;1904922;75;20191;-64
2020/12/15 03:12:49;;;;;;;7.87;5.13;;;;;;;-0.37;90.41;100366.91;1904751;75;21012;-65
2020/12/15 03:15:18;;;;;;;13.43;7.63;;;;;;;-0.41;90.42;100356.94;1904904;75;23516;-65
2020/12/15 03:17:46;;;;;;;10.10;5.27;;;;;;;-0.40;90.44;100365.75;1890091;75;20931;-64
2020/12/15 03:20:14;;;;;;;9.80;3.97;;;;;;;-0.37;90.49;100359.38;1854972;77;20998;-66
2020/12/15 03:22:44;;;;;;;8.50;4.80;;;;;;;-0.34;90.54;100365.37;1855041;77;21002;-66
2020/12/15 03:25:16;;;;;;;10.47;5.07;;;;;;;-0.30;90.61;100359.39;1855008;77;21277;-65
2020/12/15 03:27:45;;;;;;;;;;;;;;;-0.26;90.65;100359.61;1850462;77;21373;-65
2020/12/15 03:30:14;;;;;;;9.73;5.83;;;;;;;-0.24;90.69;100357.22;1850081;77;20142;-66
2020/12/15 03:32:42;;;;;;;16.33;6.80;;;;;;;-0.23;90.71;100357.61;1854990;77;20994;-65
2020/12/15 03:35:10;;;;;;;17.40;9.80;;;;;;;-0.24;90.71;100364.34;1855038;77;20971;-65
2020/12/15 03:37:39;;;;;;;14.00;7.80;;;;;;;-0.24;90.71;100362.53;1855131;77;20935;-64
2020/12/15 03:40:08;;;;;;;23.40;10.97;;;;;;;-0.24;90.70;100367.84;1854875;77;21424;-65
2020/12/15 03:42:46;;;;;;;18.93;9.30;;;;;;;-0.23;90.68;100373.56;1845319;76;27199;-65
2020/12/15 03:45:15;;;;;;;26.27;12.30;;;;;;;-0.31;90.64;100374.97;1783641;79;21023;-65
2020/12/15 03:47:43;;;;;;;14.93;6.93;;;;;;;-0.34;90.61;100371.16;1815272;79;21370;-65
2020/12/15 03:50:11;;;;;;;18.23;8.27;;;;;;;-0.34;90.62;100369.35;1836695;78;21005;-65
2020/12/15 03:52:40;;;;;;;13.70;7.37;;;;;;;-0.32;90.62;100377.23;1837538;77;20981;-64
2020/12/15 03:55:09;;;;;;;14.37;7.17;;;;;;;-0.33;90.64;100373.73;1801886;79;21647;-65
2020/12/15 03:57:56;;;;;;;53.57;21.23;;;;;;;-0.24;90.65;100376.30;1829556;76;27790;-64
2020/12/15 04:00:25;;;;;;;32.60;10.80;;;;;;;-0.26;90.66;100379.05;1810858;79;21592;-65
2020/12/15 04:02:55;;;;;;;17.70;8.23;;;;;;;-0.21;90.63;100388.09;1810737;79;21458;-64
2020/12/15 04:05:30;;;;;;;15.10;6.93;;;;;;;-0.21;90.63;100387.61;1810687;79;21561;-65
2020/12/15 04:07:59;;;;;;;7.47;4.73;;;;;;;-0.19;90.61;100382.20;1815225;79;21016;-65
2020/12/15 04:10:30;;;;;;;14.13;6.33;;;;;;;-0.18;90.62;100383.89;1815243;79;21000;-66
2020/12/15 04:12:59;;;;;;;10.33;5.27;;;;;;;-0.17;90.61;100391.41;1815306;79;21071;-66
2020/12/15 04:15:28;;;;;;;11.53;5.43;;;;;;;-0.19;90.57;100399.47;1810413;79;21276;-65
2020/12/15 04:17:57;;;;;;;16.07;6.80;;;;;;;-0.23;90.54;100405.45;1815273;77;20961;-65
2020/12/15 04:20:24;;;;;;;27.40;9.73;;;;;;;-0.23;90.55;100412.55;1783770;78;21000;-65
2020/12/15 04:22:52;;;;;;;12.30;6.07;;;;;;;-0.22;90.58;100404.97;1735656;82;21032;-65
2020/12/15 04:25:22;;;;;;;13.33;5.97;;;;;;;-0.23;90.59;100406.78;1740831;81;21032;-65
2020/12/15 04:27:50;;;;;;;15.40;6.27;;;;;;;-0.20;90.63;100411.04;1758931;81;21204;-66
2020/12/15 04:30:19;;;;;;;21.23;10.03;;;;;;;-0.22;90.62;100412.94;1758680;81;21033;-65
2020/12/15 04:32:48;;;;;;;18.43;10.17;;;;;;;-0.24;90.60;100413.03;1758883;81;20996;-66
2020/12/15 04:35:18;;;;;;;25.30;11.83;;;;;;;-0.26;90.59;100424.23;1754580;81;20941;-66
2020/12/15 04:37:48;;;;;;;32.93;18.63;;;;;;;-0.28;90.58;100420.81;1758652;81;20926;-66
2020/12/15 04:40:18;;;;;;;50.00;23.93;;;;;;;-0.30;90.60;100417.85;1758808;81;21448;-65
2020/12/15 04:42:46;;;;;;;34.40;18.27;;;;;;;-0.32;90.58;100420.63;1758740;81;21021;-65
2020/12/15 04:45:15;;;;;;;21.93;11.47;;;;;;;-0.33;90.60;100418.06;1758792;81;20949;-65
2020/12/15 04:47:46;;;;;;;20.83;9.43;;;;;;;-0.32;90.63;100421.95;1754676;81;21590;-65
2020/12/15 04:50:17;;;;;;;21.57;9.20;;;;;;;-0.30;90.65;100417.85;1702654;82;21174;-65
2020/12/15 04:53:12;;;;;;;33.10;17.13;;;;;;;-0.25;90.66;100418.44;1845291;76;26602;-65
2020/12/15 04:55:43;;;;;;;44.73;19.20;;;;;;;-0.27;90.69;100425.65;1762419;80;20965;-65
2020/12/15 04:58:20;;;;;;;123.53;40.20;;;;;;;-0.23;90.71;100424.05;1835798;76;27897;-66
2020/12/15 05:00:53;;;;;;;75.67;26.67;;;;;;;-0.27;90.68;100429.64;1782643;80;20989;-65
2020/12/15 05:03:37;;;;;;;57.90;22.67;;;;;;;-0.28;90.64;100435.92;1771964;80;21342;-66
2020/12/15 05:06:16;;;;;;;34.10;14.70;;;;;;;-0.24;90.61;100436.11;1889939;76;26762;-65
2020/12/15 05:08:47;;;;;;;36.13;16.23;;;;;;;-0.28;90.58;100440.75;1855910;77;21594;-67
2020/12/15 05:11:16;;;;;;;42.13;21.90;;;;;;;-0.25;90.64;100434.38;1860842;77;21427;-68
2020/12/15 05:13:58;;;;;;;26.57;11.53;;;;;;;-0.28;90.65;100431.93;1723411;82;21099;-65
2020/12/15 05:16:37;;;;;;;12.27;6.60;;;;;;;-0.30;90.66;100431.14;1691100;84;21051;-66
2020/12/15 05:19:28;;;;;;;13.53;7.17;;;;;;;-0.27;90.67;100425.16;1855125;76;26703;-66
2020/12/15 05:21:58;;;;;;;13.43;7.30;;;;;;;-0.31;90.68;100432.11;1827144;78;20929;-69
2020/12/15 05:24:29;;;;;;;13.73;7.33;;;;;;;-0.29;90.71;100439.51;1827073;78;21195;-66
2020/12/15 05:27:01;;;;;;;;;;;;;;;-0.27;90.76;100438.94;1797724;78;21007;-66
2020/12/15 05:29:31;;;;;;;17.00;8.30;;;;;;;-0.28;90.78;100443.41;1822442;78;20131;-65
2020/12/15 05:32:11;;;;;;;29.47;12.53;;;;;;;-0.25;90.81;100440.58;1851856;76;26776;-65
2020/12/15 05:34:47;;;;;;;52.37;33.03;;;;;;;-0.31;90.77;100444.06;1681755;84;21422;-65
2020/12/15 05:37:33;;;;;;;28.30;16.43;;;;;;;-0.31;90.81;100442.25;1845301;76;26495;-64
2020/12/15 05:40:18;;;;;;;26.20;12.47;;;;;;;-0.35;90.79;100453.14;1699208;82;21004;-65
2020/12/15 05:43:02;;;;;;;12.50;6.23;;;;;;;-0.32;90.81;100452.52;1845265;76;26339;-65
2020/12/15 05:45:31;;;;;;;13.10;6.73;;;;;;;-0.38;90.79;100471.47;1758308;81;21020;-65
2020/12/15 05:48:08;;;;;;;18.17;8.37;;;;;;;-0.35;90.80;100466.43;1758133;81;21370;-68
2020/12/15 05:50:38;;;;;;;19.27;8.13;;;;;;;-0.32;90.84;100471.57;1758162;81;20949;-65
2020/12/15 05:53:08;;;;;;;21.77;11.00;;;;;;;-0.29;90.87;100466.08;1758341;81;20945;-63
2020/12/15 05:55:36;;;;;;;17.90;8.50;;;;;;;-0.27;90.90;100471.67;1757941;81;21027;-66
2020/12/15 05:58:05;;;;;;;15.90;7.23;;;;;;;-0.26;90.92;100472.07;1758388;81;20992;-65
2020/12/15 06:00:33;;;;;;;20.30;9.87;;;;;;;-0.23;90.93;100467.03;1758059;81;21525;-66
2020/12/15 06:03:05;;;;;;;13.00;7.17;;;;;;;-0.21;90.95;100479.30;1758237;81;21461;-64
2020/12/15 06:05:37;;;;;;;20.60;11.20;;;;;;;-0.17;90.98;100469.34;1758209;81;21028;-66
2020/12/15 06:08:06;;;;;;;28.17;11.47;;;;;;;-0.15;90.95;100470.09;1758240;81;20984;-65
2020/12/15 06:10:35;;;;;;;26.27;11.13;;;;;;;-0.15;90.97;100475.41;1757972;81;20993;-65
2020/12/15 06:13:04;;;;;;;22.97;9.33;;;;;;;-0.14;90.97;100476.26;1758320;81;21361;-66
2020/12/15 06:15:32;;;;;;;11.97;5.60;;;;;;;-0.12;90.97;100473.06;1757999;81;21019;-66
2020/12/15 06:18:01;;;;;;;14.10;6.13;;;;;;;-0.10;91.01;100472.01;1757845;81;20953;-64
2020/12/15 06:20:35;;;;;;;10.80;6.30;;;;;;;-0.07;91.01;100485.58;1728105;83;20964;-65
2020/12/15 06:23:06;;;;;;;13.30;8.58;;;;;;;-0.04;91.02;100484.92;1728498;80;21003;-65
2020/12/15 06:25:35;;;;;;;19.27;8.43;;;;;;;0.02;91.03;100485.05;1758257;81;21439;-65
2020/12/15 06:28:10;;;;;;;18.93;8.97;;;;;;;0.03;91.03;100481.91;1757991;81;21012;-64
2020/12/15 06:30:44;;;;;;;20.67;9.50;;;;;;;0.01;91.01;100487.31;1758275;81;21159;-65
2020/12/15 06:33:13;;;;;;;13.27;7.50;;;;;;;0.03;91.01;100487.22;1757966;81;21202;-71
2020/12/15 06:35:47;;;;;;;14.57;6.13;;;;;;;0.03;91.01;100492.55;1758394;81;21004;-70
2020/12/15 06:38:20;;;;;;;24.50;11.70;;;;;;;0.07;91.03;100493.61;1758011;81;21591;-70
2020/12/15 06:40:49;;;;;;;;;;;;;;;0.11;91.03;100488.95;1760483;79;21040;-70
2020/12/15 06:43:30;;;;;;;20.53;9.03;;;;;;;0.12;91.01;100490.65;1766404;80;20137;-71
2020/12/15 06:46:06;;;;;;;19.10;9.17;;;;;;;0.12;91.00;100488.84;1755005;81;21133;-72
2020/12/15 06:48:45;;;;;;;16.40;7.73;;;;;;;0.13;90.97;100481.73;1845279;76;26448;-72
2020/12/15 06:51:13;;;;;;;23.05;9.70;;;;;;;0.09;90.96;100490.83;1729319;82;21060;-72
2020/12/15 06:53:43;;;;;;;13.70;7.87;;;;;;;0.09;90.94;100490.38;1718734;83;21198;-70
2020/12/15 06:56:11;;;;;;;10.83;6.13;;;;;;;0.12;90.98;100489.32;1729151;83;21044;-70
2020/12/15 06:58:39;;;;;;;12.73;7.07;;;;;;;0.14;90.96;100488.30;1646063;86;21486;-71
2020/12/15 07:01:19;;;;;;;16.07;7.20;;;;;;;0.13;90.94;100489.23;1643078;86;21529;-70
2020/12/15 07:03:58;;;;;;;26.63;10.63;;;;;;;0.13;90.89;100486.57;1851744;76;26819;-70
2020/12/15 07:06:25;;;;;;;16.67;7.13;;;;;;;0.11;90.86;100496.94;1782511;80;21239;-73
2020/12/15 07:09:09;;;;;;;18.97;9.07;;;;;;;0.10;90.86;100505.84;1838571;77;21405;-71
2020/12/15 07:11:40;;;;;;;24.97;12.50;;;;;;;0.13;90.87;100507.00;1840359;77;21056;-70
2020/12/15 07:14:09;;;;;;;22.60;12.40;;;;;;;0.16;90.88;100498.36;1832876;77;21060;-73
2020/12/15 07:16:37;;;;;;;27.73;12.13;;;;;;;0.16;90.86;100498.81;1854517;77;20993;-71
2020/12/15 07:19:06;;;;;;;31.10;13.83;;;;;;;0.18;90.87;100507.09;1799331;79;21033;-71
2020/12/15 07:21:34;;;;;;;25.90;13.30;;;;;;;0.20;90.87;100512.81;1840513;77;21189;-70
2020/12/15 07:24:04;;;;;;;20.07;9.30;;;;;;;0.22;90.87;100509.09;1838281;78;20993;-70
2020/12/15 07:26:32;;;;;;;20.33;11.47;;;;;;;0.26;90.87;100506.62;1822068;77;20941;-71
2020/12/15 07:29:01;;;;;;;30.50;15.53;;;;;;;0.29;90.84;100513.09;1820662;78;21283;-70
2020/12/15 07:31:30;;;;;;;33.23;14.67;;;;;;;0.26;90.79;100510.61;1825827;77;21045;-65
2020/12/15 07:34:11;;;;;;;34.73;19.30;;;;;;;0.27;90.76;100510.16;1824553;77;21190;-67
2020/12/15 07:36:42;;;;;;;36.50;20.50;;;;;;;0.25;90.71;100513.36;1830190;77;21608;-66
2020/12/15 07:39:10;;;;;;;27.60;14.47;;;;;;;0.23;90.68;100517.92;1825181;77;21159;-64
2020/12/15 07:41:38;;;;;;;15.70;10.90;;;;;;;0.23;90.64;100520.12;1786448;79;21046;-66
2020/12/15 07:44:16;;;;;;;17.87;8.70;;;;;;;0.25;90.59;100524.00;1825722;77;20977;-71
2020/12/15 07:46:46;;;;;;;16.17;7.87;;;;;;;0.29;90.61;100522.40;1819391;77;21564;-69
2020/12/15 07:49:14;;;;;;;14.83;7.67;;;;;;;0.31;90.57;100519.65;1776703;80;21447;-69
2020/12/15 07:51:42;;;;;;;13.53;7.07;;;;;;;0.33;90.57;100523.06;1822857;77;20996;-70
2020/12/15 07:54:10;;;;;;;23.07;9.07;;;;;;;0.34;90.54;100520.80;1822574;77;20969;-70
2020/12/15 07:56:39;;;;;;;14.73;8.13;;;;;;;0.37;90.55;100519.26;1836035;77;20989;-70
2020/12/15 07:59:06;;;;;;;10.70;5.13;;;;;;;0.41;90.54;100525.25;1821935;77;21368;-71
2020/12/15 08:01:34;;;;;;;14.30;6.57;;;;;;;0.45;90.52;100531.63;1819643;77;21064;-70
2020/12/15 08:04:12;;;;;;;16.67;6.47;;;;;;;0.50;90.53;100520.72;1814446;77;20941;-69
2020/12/15 08:06:42;;;;;;;13.27;7.50;;;;;;;0.54;90.52;100524.89;1830572;77;21028;-70
2020/12/15 08:09:15;;;;;;;17.60;8.63;;;;;;;0.58;90.53;100538.37;1822593;77;21617;-66
2020/12/15 08:11:46;;;;;;;17.35;9.50;;;;;;;0.60;90.51;100539.13;1830033;77;22151;-65
2020/12/15 08:14:17;;;;;;;22.50;10.17;;;;;;;0.64;90.53;100530.48;1741822;81;21099;-65
2020/12/15 08:16:47;;;;;;;19.15;10.18;;;;;;;0.63;90.48;100530.11;1745483;81;21175;-66
2020/12/15 08:19:16;;;;;;;33.93;16.17;;;;;;;0.63;90.42;100535.44;1747355;81;21423;-66
2020/12/15 08:21:50;;;;;;;24.10;9.60;;;;;;;0.64;90.41;100538.46;1743406;81;21842;-66
2020/12/15 08:24:26;;;;;;;21.97;10.20;;;;;;;0.64;90.36;100536.68;1743902;81;21711;-66
2020/12/15 08:29:36;;;;;;;31.40;17.43;;;;;;;0.72;90.30;100522.88;1840013;76;26755;-69
2020/12/15 08:32:04;;;;;;;28.00;14.57;;;;;;;0.68;90.27;100522.22;1733540;82;21025;-68
2020/12/15 08:34:32;;;;;;;14.70;7.87;;;;;;;0.67;90.21;100521.83;1753694;81;21340;-69
2020/12/15 08:37:01;;;;;;;10.60;5.70;;;;;;;0.68;90.17;100524.03;1756441;80;21012;-66
2020/12/15 08:39:31;;;;;;;13.23;6.20;;;;;;;0.70;90.13;100522.97;1760863;81;20886;-66
2020/12/15 08:42:00;;;;;;;20.00;8.70;;;;;;;0.73;90.08;100530.78;1741246;81;20918;-67
2020/12/15 08:44:34;;;;;;;17.07;6.67;;;;;;;0.75;90.07;100520.03;1714937;82;21091;-69
2020/12/15 08:46:58;;;;;;;13.23;6.23;;;;;;;0.79;90.05;100524.69;1766740;81;22284;-68
2020/12/15 08:49:27;;;;;;;57.33;30.97;;;;;;;0.81;90.04;100530.28;1750614;81;20967;-67
2020/12/15 08:51:55;;;;;;;24.90;14.40;;;;;;;0.84;90.03;100531.43;1756696;81;21008;-67
2020/12/15 08:54:24;;;;;;;17.07;8.47;;;;;;;0.86;89.95;100530.85;1763751;80;21032;-66
2020/12/15 08:56:52;;;;;;;24.67;13.27;;;;;;;0.89;89.89;100525.83;1755277;81;21056;-66
2020/12/15 08:59:26;;;;;;;13.77;6.43;;;;;;;0.93;89.83;100528.66;1771483;81;21396;-67
2020/12/15 09:01:58;;;;;;;16.37;7.17;;;;;;;0.97;89.82;100524.84;1771126;81;21166;-67
2020/12/15 09:04:27;;;;;;;18.70;8.17;;;;;;;1.03;89.78;100532.45;1753719;81;21004;-66
2020/12/15 09:06:56;;;;;;;18.43;7.40;;;;;;;1.08;89.77;100526.81;1737624;80;21098;-71
2020/12/15 09:09:28;;;;;;;15.43;7.10;;;;;;;1.11;89.70;100530.62;1736734;80;21083;-69
2020/12/15 09:11:56;;;;;;;12.73;6.73;;;;;;;1.11;89.61;100535.95;1677107;85;22156;-70
2020/12/15 09:14:24;;;;;;;9.60;4.67;;;;;;;1.11;89.52;100527.96;1688154;84;21084;-70
2020/12/15 09:16:52;;;;;;;10.60;5.90;;;;;;;1.16;89.47;100521.02;1698352;84;21071;-71
2020/12/15 09:19:21;;;;;;;14.27;6.53;;;;;;;1.20;89.37;100523.86;1707700;82;20956;-70
2020/12/15 09:22:02;;;;;;;15.47;6.57;;;;;;;1.24;89.30;100518.70;1696725;84;21119;-70
2020/12/15 09:24:43;;;;;;;30.45;13.10;;;;;;;1.32;89.22;100507.07;1821803;76;28380;-70
2020/12/15 09:27:23;;;;;;;23.93;9.43;;;;;;;1.35;89.17;100515.33;1802040;79;21048;-71
2020/12/15 09:29:50;;;;;;;22.43;8.77;;;;;;;1.42;89.08;100516.18;1761180;81;21221;-70
2020/12/15 09:32:18;;;;;;;16.90;6.47;;;;;;;1.42;88.90;100517.52;1761205;79;21080;-70
2020/12/15 09:34:47;;;;;;;12.70;5.73;;;;;;;1.43;88.81;100521.87;1766556;79;21071;-65
2020/12/15 09:37:15;;;;;;;11.77;5.97;;;;;;;1.47;88.72;100514.07;1775068;79;20937;-67
2020/12/15 09:39:45;;;;;;;14.53;7.17;;;;;;;1.48;88.61;100522.42;1765736;79;20926;-65
2020/12/15 09:42:16;;;;;;;19.50;9.60;;;;;;;1.51;88.53;100514.72;1761219;80;21648;-68
2020/12/15 09:44:44;;;;;;;21.50;8.50;;;;;;;1.54;88.44;100513.65;1764080;80;21108;-67
2020/12/15 09:47:12;;;;;;;21.27;9.37;;;;;;;1.50;88.34;100508.52;1760711;81;21069;-67
2020/12/15 09:49:40;;;;;;;21.63;9.43;;;;;;;1.47;88.22;100503.87;1747130;80;21070;-68
2020/12/15 09:52:08;;;;;;;21.63;9.17;;;;;;;1.45;88.12;100503.12;1748365;82;21064;-67
2020/12/15 09:54:36;;;;;;;14.83;7.60;;;;;;;1.45;88.06;100500.45;1756631;81;21849;-66
2020/12/15 09:57:05;;;;;;;23.07;8.83;;;;;;;1.46;88.00;100499.02;1757098;80;21041;-69
2020/12/15 09:59:33;;;;;;;16.27;6.30;;;;;;;1.47;87.91;100498.53;1748875;81;21021;-70
2020/12/15 10:02:02;;;;;;;30.60;12.70;;;;;;;1.46;87.86;100496.36;1753956;81;21138;-72
2020/12/15 10:04:30;;;;;;;32.17;14.87;;;;;;;1.50;87.82;100494.34;1727677;82;21199;-75
2020/12/15 10:06:59;;;;;;;13.43;6.47;;;;;;;1.54;87.82;100494.53;1759385;81;21185;-70
2020/12/15 10:09:27;;;;;;;18.40;7.67;;;;;;;1.56;87.80;100489.08;1728541;81;20967;-69
2020/12/15 10:11:56;;;;;;;12.50;5.43;;;;;;;1.54;87.70;100493.20;1758164;81;21677;-71
2020/12/15 10:14:25;;;;;;;9.00;4.43;;;;;;;1.53;87.58;100491.97;1746814;82;20974;-71
2020/12/15 10:16:53;;;;;;;19.63;7.43;;;;;;;1.47;87.46;100488.75;1749450;82;21025;-69
2020/12/15 10:19:22;;;;;;;15.80;6.63;;;;;;;1.45;87.40;100486.67;1750381;81;23536;-69
2020/12/15 10:21:55;;;;;;;9.93;5.40;;;;;;;1.44;87.37;100484.95;1729935;82;21645;-68
2020/12/15 10:24:24;;;;;;;9.88;5.30;;;;;;;1.43;87.33;100480.56;1755991;80;23711;-70
2020/12/15 10:26:53;;;;;;;12.03;6.33;;;;;;;1.42;87.33;100477.54;1814561;79;21641;-66
2020/12/15 10:29:23;;;;;;;12.20;5.73;;;;;;;1.43;87.29;100479.23;1792270;79;21677;-65
2020/12/15 10:31:51;;;;;;;17.50;7.23;;;;;;;1.43;87.28;100478.38;1713222;82;21693;-64
2020/12/15 10:34:19;;;;;;;23.27;8.57;;;;;;;1.45;87.32;100485.80;1745684;81;20981;-66
2020/12/15 10:37:05;;;;;;;10.70;5.57;;;;;;;1.47;87.33;100486.55;1749655;79;21004;-71
2020/12/15 10:39:33;;;;;;;12.03;6.20;;;;;;;1.46;87.31;100487.03;1756045;80;21568;-71
2020/12/15 10:42:01;;;;;;;12.97;6.77;;;;;;;1.44;87.29;100490.28;1758878;81;20945;-73
2020/12/15 10:44:30;;;;;;;13.07;6.20;;;;;;;1.41;87.20;100486.47;1748719;81;21287;-69
2020/12/15 10:47:05;;;;;;;16.23;8.83;;;;;;;1.36;87.12;100485.92;1749033;81;21025;-69
2020/12/15 10:49:33;;;;;;;20.70;9.87;;;;;;;1.36;87.11;100482.41;1749616;81;21053;-69
2020/12/15 10:52:13;;;;;;;16.60;7.83;;;;;;;1.34;87.09;100489.17;1709186;82;21006;-70
2020/12/15 10:54:42;;;;;;;12.47;5.67;;;;;;;1.33;87.08;100491.48;1760120;80;21572;-70
2020/12/15 10:57:18;;;;;;;14.50;5.60;;;;;;;1.32;87.06;100487.09;1723482;82;21212;-69
2020/12/15 10:59:46;;;;;;;8.93;4.70;;;;;;;1.30;87.00;100484.52;1657391;86;21336;-73
2020/12/15 11:02:17;;;;;;;8.97;5.17;;;;;;;1.26;86.93;100478.18;1636500;87;21291;-69
2020/12/15 11:04:51;;;;;;;;;;;;;;;1.22;86.90;100482.86;1629134;86;21065;-70
2020/12/15 11:07:19;;;;;;;11.67;5.83;;;;;;;1.23;86.92;100485.03;1648527;86;20175;-71
2020/12/15 11:09:47;;;;;;;10.77;4.47;;;;;;;1.23;86.94;100479.22;1641256;87;22399;-71
2020/12/15 11:12:15;;;;;;;9.97;4.83;;;;;;;1.23;86.97;100480.55;1639925;87;21053;-71
2020/12/15 11:14:42;;;;;;;13.73;6.27;;;;;;;1.23;86.94;100475.71;1640680;86;21047;-70
2020/12/15 11:17:11;;;;;;;7.37;4.57;;;;;;;1.20;86.87;100475.41;1642306;86;21049;-68
2020/12/15 11:19:39;;;;;;;10.07;4.70;;;;;;;1.21;86.83;100478.95;1638762;87;21230;-68
2020/12/15 11:22:08;;;;;;;11.73;5.60;;;;;;;1.22;86.84;100477.98;1638262;86;21312;-69
2020/12/15 11:24:36;;;;;;;12.37;6.10;;;;;;;1.23;86.84;100486.36;1629070;87;21167;-69
2020/12/15 11:27:04;;;;;;;12.50;5.87;;;;;;;1.22;86.85;100485.97;1635140;86;21638;-69
2020/12/15 11:29:33;;;;;;;12.60;6.33;;;;;;;1.21;86.87;100485.13;1650155;86;21159;-68
2020/12/15 11:32:03;;;;;;;7.73;3.50;;;;;;;1.20;86.81;100489.22;1655682;86;21045;-69
2020/12/15 11:34:30;;;;;;;13.43;6.13;;;;;;;1.17;86.79;100488.95;1676208;84;21293;-70
2020/12/15 11:36:59;;;;;;;11.70;5.70;;;;;;;1.19;86.77;100492.83;1640000;87;21053;-68
2020/12/15 11:39:27;;;;;;;11.70;4.83;;;;;;;1.15;86.73;100494.84;1639512;86;21143;-71